KITR

Kit Carson County Airport

Burlington, Colorado, USA
METAR KITR 221353Z AUTO 32008KT 10SM CLR 07/02 A3014 RMK AO2 SLP190 T00720017
Observed Flight Rules
Oct-22 @ 13:53 UTC (40 minutes ago) Visual Flight Rules
Wind Visibility Clouds
320° at 8 knots 10 miles
  • Clear skies
Temperatures Readings
Current 7°C / 45°F
Dewpoint 2°C / 36°F
Humidity 71%
Altimeter 30.14" Hg
Pressure 1019 hPa
Elevation 1279
METAR KITR 221353Z AUTO 32008KT 10SM CLR 07/02 A3014 RMK AO2 SLP190 T00720017
Observed Flight Rules
Oct-22 @ 13:53 UTC
(40 minutes ago)
VFR
Wind Visibility
320° at 8 knots 10 miles
Clouds
  • Clear skies
Temperature Dewpoint
7°C / 45°F 2°C / 36°F
Humidity Altimeter Pressure
71% 30.14" Hg 1019 hPa